sensor_id;sensor_type;location;lat;lon;timestamp;temperature;humidity
1355;DHT22;671;48.972;9.276;2023-04-24T00:00:35;12.60;99.90
1355;DHT22;671;48.972;9.276;2023-04-24T00:03:02;12.60;99.90
1355;DHT22;671;48.972;9.276;2023-04-24T00:05:29;12.60;99.90
1355;DHT22;671;48.972;9.276;2023-04-24T00:07:55;12.60;99.90
1355;DHT22;671;48.972;9.276;2023-04-24T00:10:22;12.60;99.90
1355;DHT22;671;48.972;9.276;2023-04-24T00:12:49;12.70;99.90
1355;DHT22;671;48.972;9.276;2023-04-24T00:15:15;12.70;99.90
1355;DHT22;671;48.972;9.276;2023-04-24T00:17:42;12.70;99.90
1355;DHT22;671;48.972;9.276;2023-04-24T00:20:08;12.80;99.90
1355;DHT22;671;48.972;9.276;2023-04-24T00:22:36;12.80;99.90
1355;DHT22;671;48.972;9.276;2023-04-24T00:25:03;12.80;99.90
1355;DHT22;671;48.972;9.276;2023-04-24T00:27:29;12.80;99.90
1355;DHT22;671;48.972;9.276;2023-04-24T00:29:56;12.90;99.90
1355;DHT22;671;48.972;9.276;2023-04-24T00:32:22;12.90;99.90
1355;DHT22;671;48.972;9.276;2023-04-24T00:34:49;12.90;99.90
1355;DHT22;671;48.972;9.276;2023-04-24T00:37:15;12.90;99.90
1355;DHT22;671;48.972;9.276;2023-04-24T00:39:42;12.80;99.90
1355;DHT22;671;48.972;9.276;2023-04-24T00:42:08;12.80;99.90
1355;DHT22;671;48.972;9.276;2023-04-24T00:44:35;12.80;99.90
1355;DHT22;671;48.972;9.276;2023-04-24T00:47:02;12.80;99.90
1355;DHT22;671;48.972;9.276;2023-04-24T00:49:29;12.90;99.90
1355;DHT22;671;48.972;9.276;2023-04-24T00:51:56;12.80;99.90
1355;DHT22;671;48.972;9.276;2023-04-24T00:54:25;12.80;99.90
1355;DHT22;671;48.972;9.276;2023-04-24T00:56:52;12.80;99.90
1355;DHT22;671;48.972;9.276;2023-04-24T00:59:18;12.80;99.90
1355;DHT22;671;48.972;9.276;2023-04-24T01:01:45;12.80;99.90
1355;DHT22;671;48.972;9.276;2023-04-24T01:04:12;12.80;99.90
1355;DHT22;671;48.972;9.276;2023-04-24T01:06:40;12.90;99.90
1355;DHT22;671;48.972;9.276;2023-04-24T01:09:09;12.90;99.90
1355;DHT22;671;48.972;9.276;2023-04-24T01:11:37;12.90;99.90
1355;DHT22;671;48.972;9.276;2023-04-24T01:14:04;12.90;99.90
1355;DHT22;671;48.972;9.276;2023-04-24T01:16:30;12.90;99.90
1355;DHT22;671;48.972;9.276;2023-04-24T01:18:57;12.90;99.90
1355;DHT22;671;48.972;9.276;2023-04-24T01:21:25;13.00;99.90
1355;DHT22;671;48.972;9.276;2023-04-24T01:23:54;13.00;99.90
1355;DHT22;671;48.972;9.276;2023-04-24T01:26:22;13.00;99.90
1355;DHT22;671;48.972;9.276;2023-04-24T01:28:49;13.00;99.90
1355;DHT22;671;48.972;9.276;2023-04-24T01:31:15;13.00;99.90
1355;DHT22;671;48.972;9.276;2023-04-24T01:33:42;13.00;99.90
1355;DHT22;671;48.972;9.276;2023-04-24T01:36:10;13.00;99.90
1355;DHT22;671;48.972;9.276;2023-04-24T01:38:37;13.00;99.90
1355;DHT22;671;48.972;9.276;2023-04-24T01:41:04;13.00;99.90
1355;DHT22;671;48.972;9.276;2023-04-24T01:43:30;13.00;99.90
1355;DHT22;671;48.972;9.276;2023-04-24T01:45:57;12.90;99.90
1355;DHT22;671;48.972;9.276;2023-04-24T01:48:24;12.90;99.90
1355;DHT22;671;48.972;9.276;2023-04-24T01:50:50;12.80;99.90
1355;DHT22;671;48.972;9.276;2023-04-24T01:53:17;12.80;99.90
1355;DHT22;671;48.972;9.276;2023-04-24T01:55:43;12.70;99.90
1355;DHT22;671;48.972;9.276;2023-04-24T01:58:10;12.70;99.90
1355;DHT22;671;48.972;9.276;2023-04-24T02:00:36;12.60;99.90
1355;DHT22;671;48.972;9.276;2023-04-24T02:03:03;12.50;99.90
1355;DHT22;671;48.972;9.276;2023-04-24T02:05:29;12.60;99.90
1355;DHT22;671;48.972;9.276;2023-04-24T02:07:56;12.50;99.90
1355;DHT22;671;48.972;9.276;2023-04-24T02:10:22;12.40;99.90
1355;DHT22;671;48.972;9.276;2023-04-24T02:12:49;12.40;99.90
1355;DHT22;671;48.972;9.276;2023-04-24T02:15:15;12.40;99.90
1355;DHT22;671;48.972;9.276;2023-04-24T02:17:43;12.30;99.90
1355;DHT22;671;48.972;9.276;2023-04-24T02:20:09;12.30;99.90
1355;DHT22;671;48.972;9.276;2023-04-24T02:22:36;12.30;99.90
1355;DHT22;671;48.972;9.276;2023-04-24T02:25:02;12.30;99.90
1355;DHT22;671;48.972;9.276;2023-04-24T02:27:29;12.30;99.90
1355;DHT22;671;48.972;9.276;2023-04-24T02:29:56;12.40;99.90
1355;DHT22;671;48.972;9.276;2023-04-24T02:32:23;12.40;99.90
1355;DHT22;671;48.972;9.276;2023-04-24T02:34:49;12.40;99.90
1355;DHT22;671;48.972;9.276;2023-04-24T02:37:16;12.50;99.90
1355;DHT22;671;48.972;9.276;2023-04-24T02:39:42;12.50;99.90
1355;DHT22;671;48.972;9.276;2023-04-24T02:42:09;12.50;99.90
1355;DHT22;671;48.972;9.276;2023-04-24T02:44:36;12.50;99.90
1355;DHT22;671;48.972;9.276;2023-04-24T02:47:02;12.60;99.90
1355;DHT22;671;48.972;9.276;2023-04-24T02:49:29;12.60;99.90
1355;DHT22;671;48.972;9.276;2023-04-24T02:51:56;12.60;99.90
1355;DHT22;671;48.972;9.276;2023-04-24T02:54:22;12.60;99.90
1355;DHT22;671;48.972;9.276;2023-04-24T02:56:49;12.60;99.90
1355;DHT22;671;48.972;9.276;2023-04-24T02:59:15;12.60;99.90
1355;DHT22;671;48.972;9.276;2023-04-24T03:01:42;12.60;99.90
1355;DHT22;671;48.972;9.276;2023-04-24T03:04:08;12.60;99.90
1355;DHT22;671;48.972;9.276;2023-04-24T03:06:36;12.60;99.90
1355;DHT22;671;48.972;9.276;2023-04-24T03:09:02;12.50;99.90
1355;DHT22;671;48.972;9.276;2023-04-24T03:11:29;12.50;99.90
1355;DHT22;671;48.972;9.276;2023-04-24T03:13:56;12.50;99.90
1355;DHT22;671;48.972;9.276;2023-04-24T03:16:22;12.40;99.90
1355;DHT22;671;48.972;9.276;2023-04-24T03:18:49;12.40;99.90
1355;DHT22;671;48.972;9.276;2023-04-24T03:21:15;12.40;99.90
1355;DHT22;671;48.972;9.276;2023-04-24T03:23:42;12.30;99.90
1355;DHT22;671;48.972;9.276;2023-04-24T03:26:08;12.30;99.90
1355;DHT22;671;48.972;9.276;2023-04-24T03:28:35;12.20;99.90
1355;DHT22;671;48.972;9.276;2023-04-24T03:31:02;12.20;99.90
1355;DHT22;671;48.972;9.276;2023-04-24T03:33:29;12.20;99.90
1355;DHT22;671;48.972;9.276;2023-04-24T03:35:56;12.20;99.90
1355;DHT22;671;48.972;9.276;2023-04-24T03:38:22;12.20;99.90
1355;DHT22;671;48.972;9.276;2023-04-24T03:40:49;12.30;99.90
1355;DHT22;671;48.972;9.276;2023-04-24T03:43:15;12.30;99.90
1355;DHT22;671;48.972;9.276;2023-04-24T03:45:42;12.30;99.90
1355;DHT22;671;48.972;9.276;2023-04-24T03:48:08;12.30;99.90
1355;DHT22;671;48.972;9.276;2023-04-24T03:50:35;12.40;99.90
1355;DHT22;671;48.972;9.276;2023-04-24T03:53:01;12.40;99.90
1355;DHT22;671;48.972;9.276;2023-04-24T03:55:28;12.40;99.90
1355;DHT22;671;48.972;9.276;2023-04-24T03:57:54;12.30;99.90
1355;DHT22;671;48.972;9.276;2023-04-24T04:00:21;12.40;99.90
1355;DHT22;671;48.972;9.276;2023-04-24T04:02:47;12.40;99.90
1355;DHT22;671;48.972;9.276;2023-04-24T04:05:14;12.40;99.90
1355;DHT22;671;48.972;9.276;2023-04-24T04:07:40;12.40;99.90
1355;DHT22;671;48.972;9.276;2023-04-24T04:10:07;12.40;99.90
1355;DHT22;671;48.972;9.276;2023-04-24T04:12:34;12.40;99.90
1355;DHT22;671;48.972;9.276;2023-04-24T04:15:00;12.40;99.90
1355;DHT22;671;48.972;9.276;2023-04-24T04:17:27;12.40;99.90
1355;DHT22;671;48.972;9.276;2023-04-24T04:19:53;12.40;99.90
1355;DHT22;671;48.972;9.276;2023-04-24T04:22:20;12.40;99.90
1355;DHT22;671;48.972;9.276;2023-04-24T04:24:46;12.20;99.90
1355;DHT22;671;48.972;9.276;2023-04-24T04:27:13;12.10;99.90
1355;DHT22;671;48.972;9.276;2023-04-24T04:29:39;11.90;99.90
1355;DHT22;671;48.972;9.276;2023-04-24T04:32:06;11.80;99.90
1355;DHT22;671;48.972;9.276;2023-04-24T04:34:32;11.70;99.90
1355;DHT22;671;48.972;9.276;2023-04-24T04:36:59;11.60;99.90
1355;DHT22;671;48.972;9.276;2023-04-24T04:39:27;11.50;99.90
1355;DHT22;671;48.972;9.276;2023-04-24T04:41:57;11.40;99.90
1355;DHT22;671;48.972;9.276;2023-04-24T04:44:24;11.40;99.90
1355;DHT22;671;48.972;9.276;2023-04-24T04:46:51;11.30;99.90
1355;DHT22;671;48.972;9.276;2023-04-24T04:49:19;11.30;99.90
1355;DHT22;671;48.972;9.276;2023-04-24T04:51:47;11.20;99.90
1355;DHT22;671;48.972;9.276;2023-04-24T04:54:14;11.30;99.90
1355;DHT22;671;48.972;9.276;2023-04-24T04:56:42;11.20;99.90
1355;DHT22;671;48.972;9.276;2023-04-24T04:59:08;11.20;99.90
1355;DHT22;671;48.972;9.276;2023-04-24T05:01:35;11.20;99.90
1355;DHT22;671;48.972;9.276;2023-04-24T05:04:01;11.20;99.90
1355;DHT22;671;48.972;9.276;2023-04-24T05:06:28;11.20;99.90
1355;DHT22;671;48.972;9.276;2023-04-24T05:08:54;11.20;99.90
1355;DHT22;671;48.972;9.276;2023-04-24T05:11:24;11.20;99.90
1355;DHT22;671;48.972;9.276;2023-04-24T05:13:50;11.20;99.90
1355;DHT22;671;48.972;9.276;2023-04-24T05:16:17;11.20;99.90
1355;DHT22;671;48.972;9.276;2023-04-24T05:18:43;11.20;99.90
1355;DHT22;671;48.972;9.276;2023-04-24T05:21:10;11.20;99.90
1355;DHT22;671;48.972;9.276;2023-04-24T05:23:36;11.30;99.90
1355;DHT22;671;48.972;9.276;2023-04-24T05:26:03;11.30;99.90
1355;DHT22;671;48.972;9.276;2023-04-24T05:28:29;11.40;99.90
1355;DHT22;671;48.972;9.276;2023-04-24T05:30:56;11.40;99.90
1355;DHT22;671;48.972;9.276;2023-04-24T05:33:22;11.50;99.90
1355;DHT22;671;48.972;9.276;2023-04-24T05:35:49;11.60;99.90
1355;DHT22;671;48.972;9.276;2023-04-24T05:38:15;11.60;99.90
1355;DHT22;671;48.972;9.276;2023-04-24T05:40:45;11.70;99.90
1355;DHT22;671;48.972;9.276;2023-04-24T05:43:12;11.70;99.90
1355;DHT22;671;48.972;9.276;2023-04-24T05:45:39;11.80;99.90
1355;DHT22;671;48.972;9.276;2023-04-24T05:48:06;11.80;99.90
1355;DHT22;671;48.972;9.276;2023-04-24T05:50:33;11.90;99.90
1355;DHT22;671;48.972;9.276;2023-04-24T05:52:59;12.00;99.90
1355;DHT22;671;48.972;9.276;2023-04-24T05:55:28;12.00;99.90
1355;DHT22;671;48.972;9.276;2023-04-24T05:57:54;11.90;99.90
1355;DHT22;671;48.972;9.276;2023-04-24T06:00:21;11.80;99.90
1355;DHT22;671;48.972;9.276;2023-04-24T06:02:48;11.70;99.90
1355;DHT22;671;48.972;9.276;2023-04-24T06:05:14;11.60;99.90
1355;DHT22;671;48.972;9.276;2023-04-24T06:07:41;11.50;99.90
1355;DHT22;671;48.972;9.276;2023-04-24T06:10:08;11.50;99.90
1355;DHT22;671;48.972;9.276;2023-04-24T06:12:35;11.60;99.90
1355;DHT22;671;48.972;9.276;2023-04-24T06:15:03;11.80;99.90
1355;DHT22;671;48.972;9.276;2023-04-24T06:17:30;11.90;99.90
1355;DHT22;671;48.972;9.276;2023-04-24T06:19:57;11.90;99.90
1355;DHT22;671;48.972;9.276;2023-04-24T06:22:23;11.90;99.90
1355;DHT22;671;48.972;9.276;2023-04-24T06:24:50;12.00;99.90
1355;DHT22;671;48.972;9.276;2023-04-24T06:27:17;12.10;99.90
1355;DHT22;671;48.972;9.276;2023-04-24T06:29:43;12.20;99.90
1355;DHT22;671;48.972;9.276;2023-04-24T06:32:10;12.40;99.90
1355;DHT22;671;48.972;9.276;2023-04-24T06:34:36;12.80;99.90
1355;DHT22;671;48.972;9.276;2023-04-24T06:37:03;13.00;99.90
1355;DHT22;671;48.972;9.276;2023-04-24T06:39:29;13.00;99.90
1355;DHT22;671;48.972;9.276;2023-04-24T06:41:56;13.10;99.90
1355;DHT22;671;48.972;9.276;2023-04-24T06:44:22;13.30;99.90
1355;DHT22;671;48.972;9.276;2023-04-24T06:46:49;13.30;99.90
1355;DHT22;671;48.972;9.276;2023-04-24T06:49:15;13.50;99.90
1355;DHT22;671;48.972;9.276;2023-04-24T06:51:42;13.60;99.90
1355;DHT22;671;48.972;9.276;2023-04-24T06:54:09;13.60;99.90
1355;DHT22;671;48.972;9.276;2023-04-24T06:56:35;13.70;99.90
1355;DHT22;671;48.972;9.276;2023-04-24T06:59:02;13.80;99.90
1355;DHT22;671;48.972;9.276;2023-04-24T07:01:28;13.90;99.90
1355;DHT22;671;48.972;9.276;2023-04-24T07:03:54;13.90;99.90
1355;DHT22;671;48.972;9.276;2023-04-24T07:06:21;14.10;99.90
1355;DHT22;671;48.972;9.276;2023-04-24T07:08:49;14.30;99.90
1355;DHT22;671;48.972;9.276;2023-04-24T07:11:15;14.40;99.90
1355;DHT22;671;48.972;9.276;2023-04-24T07:13:41;14.70;99.90
1355;DHT22;671;48.972;9.276;2023-04-24T07:16:08;14.90;99.90
1355;DHT22;671;48.972;9.276;2023-04-24T07:18:35;15.00;99.90
1355;DHT22;671;48.972;9.276;2023-04-24T07:21:02;15.20;99.90
1355;DHT22;671;48.972;9.276;2023-04-24T07:23:29;15.20;99.90
1355;DHT22;671;48.972;9.276;2023-04-24T07:25:56;15.00;99.90
1355;DHT22;671;48.972;9.276;2023-04-24T07:28:23;14.80;99.90
1355;DHT22;671;48.972;9.276;2023-04-24T07:30:50;14.70;99.90
1355;DHT22;671;48.972;9.276;2023-04-24T07:33:20;14.70;99.90
1355;DHT22;671;48.972;9.276;2023-04-24T07:35:46;14.70;99.90
1355;DHT22;671;48.972;9.276;2023-04-24T07:38:13;14.70;99.90
1355;DHT22;671;48.972;9.276;2023-04-24T07:40:39;14.60;99.90
1355;DHT22;671;48.972;9.276;2023-04-24T07:43:06;14.40;99.90
1355;DHT22;671;48.972;9.276;2023-04-24T07:45:33;14.40;99.90
1355;DHT22;671;48.972;9.276;2023-04-24T07:48:03;14.40;99.90
1355;DHT22;671;48.972;9.276;2023-04-24T07:50:30;14.30;99.90
1355;DHT22;671;48.972;9.276;2023-04-24T07:52:56;14.20;99.90
1355;DHT22;671;48.972;9.276;2023-04-24T07:55:23;14.30;99.90
1355;DHT22;671;48.972;9.276;2023-04-24T07:57:50;14.40;99.90
1355;DHT22;671;48.972;9.276;2023-04-24T08:00:17;14.50;99.90
1355;DHT22;671;48.972;9.276;2023-04-24T08:02:43;14.50;99.90
1355;DHT22;671;48.972;9.276;2023-04-24T08:05:10;14.60;99.90
1355;DHT22;671;48.972;9.276;2023-04-24T08:07:38;14.80;99.90
1355;DHT22;671;48.972;9.276;2023-04-24T08:10:05;14.90;99.90
1355;DHT22;671;48.972;9.276;2023-04-24T08:12:31;14.90;99.90
1355;DHT22;671;48.972;9.276;2023-04-24T08:14:58;15.10;99.90
1355;DHT22;671;48.972;9.276;2023-04-24T08:17:24;15.10;99.90
1355;DHT22;671;48.972;9.276;2023-04-24T08:19:51;15.10;99.90
1355;DHT22;671;48.972;9.276;2023-04-24T08:22:19;15.10;99.90
1355;DHT22;671;48.972;9.276;2023-04-24T08:24:46;15.10;99.90
1355;DHT22;671;48.972;9.276;2023-04-24T08:27:12;15.30;99.90
1355;DHT22;671;48.972;9.276;2023-04-24T08:29:39;15.40;99.90
1355;DHT22;671;48.972;9.276;2023-04-24T08:32:05;15.20;99.90
1355;DHT22;671;48.972;9.276;2023-04-24T08:34:32;15.10;99.90
1355;DHT22;671;48.972;9.276;2023-04-24T08:36:59;15.00;99.90
1355;DHT22;671;48.972;9.276;2023-04-24T08:39:25;15.10;99.90
1355;DHT22;671;48.972;9.276;2023-04-24T08:41:52;15.20;99.90
1355;DHT22;671;48.972;9.276;2023-04-24T08:44:20;15.20;99.90
1355;DHT22;671;48.972;9.276;2023-04-24T08:46:48;15.20;99.90
1355;DHT22;671;48.972;9.276;2023-04-24T08:49:15;15.30;99.90
1355;DHT22;671;48.972;9.276;2023-04-24T08:51:45;15.30;99.90
1355;DHT22;671;48.972;9.276;2023-04-24T08:54:13;15.30;99.90
1355;DHT22;671;48.972;9.276;2023-04-24T08:56:43;15.30;99.90
1355;DHT22;671;48.972;9.276;2023-04-24T08:59:10;15.30;99.90
1355;DHT22;671;48.972;9.276;2023-04-24T09:01:38;15.50;99.90
1355;DHT22;671;48.972;9.276;2023-04-24T09:04:08;15.80;99.90
1355;DHT22;671;48.972;9.276;2023-04-24T09:06:36;15.90;99.90
1355;DHT22;671;48.972;9.276;2023-04-24T09:09:03;15.80;99.90
1355;DHT22;671;48.972;9.276;2023-04-24T09:11:31;15.90;99.90
1355;DHT22;671;48.972;9.276;2023-04-24T09:13:59;15.90;99.90
1355;DHT22;671;48.972;9.276;2023-04-24T09:16:27;16.00;99.90
1355;DHT22;671;48.972;9.276;2023-04-24T09:18:53;16.00;99.90
1355;DHT22;671;48.972;9.276;2023-04-24T09:21:21;15.90;99.90
1355;DHT22;671;48.972;9.276;2023-04-24T09:24:02;15.70;99.90
1355;DHT22;671;48.972;9.276;2023-04-24T09:26:30;15.40;99.90
1355;DHT22;671;48.972;9.276;2023-04-24T09:29:00;15.30;99.90
1355;DHT22;671;48.972;9.276;2023-04-24T09:31:28;15.30;99.90
1355;DHT22;671;48.972;9.276;2023-04-24T09:34:02;15.30;99.90
1355;DHT22;671;48.972;9.276;2023-04-24T09:36:36;15.40;99.90
1355;DHT22;671;48.972;9.276;2023-04-24T09:39:08;15.60;99.90
1355;DHT22;671;48.972;9.276;2023-04-24T09:44:21;15.80;99.90
1355;DHT22;671;48.972;9.276;2023-04-24T09:46:59;15.80;99.90
1355;DHT22;671;48.972;9.276;2023-04-24T09:49:30;15.70;99.90
1355;DHT22;671;48.972;9.276;2023-04-24T09:52:09;15.60;99.90
1355;DHT22;671;48.972;9.276;2023-04-24T09:54:37;15.50;99.90
1355;DHT22;671;48.972;9.276;2023-04-24T09:57:04;15.50;99.90
1355;DHT22;671;48.972;9.276;2023-04-24T09:59:31;15.60;99.90
1355;DHT22;671;48.972;9.276;2023-04-24T10:01:57;15.70;99.90
1355;DHT22;671;48.972;9.276;2023-04-24T10:04:26;15.80;99.90
1355;DHT22;671;48.972;9.276;2023-04-24T10:06:55;15.90;99.90
1355;DHT22;671;48.972;9.276;2023-04-24T10:09:25;16.10;99.90
1355;DHT22;671;48.972;9.276;2023-04-24T10:11:54;16.30;99.90
1355;DHT22;671;48.972;9.276;2023-04-24T10:14:24;16.40;99.90
1355;DHT22;671;48.972;9.276;2023-04-24T10:16:53;16.50;99.90
1355;DHT22;671;48.972;9.276;2023-04-24T10:19:20;16.80;99.90
1355;DHT22;671;48.972;9.276;2023-04-24T10:21:47;17.00;99.60
1355;DHT22;671;48.972;9.276;2023-04-24T10:24:15;16.80;99.50
1355;DHT22;671;48.972;9.276;2023-04-24T10:26:43;16.60;99.90
1355;DHT22;671;48.972;9.276;2023-04-24T10:29:14;16.10;98.50
1355;DHT22;671;48.972;9.276;2023-04-24T10:31:41;15.80;98.60
1355;DHT22;671;48.972;9.276;2023-04-24T10:34:09;15.50;99.70
1355;DHT22;671;48.972;9.276;2023-04-24T10:36:41;15.20;99.90
1355;DHT22;671;48.972;9.276;2023-04-24T10:39:11;15.10;99.90
1355;DHT22;671;48.972;9.276;2023-04-24T10:41:38;15.00;99.90
1355;DHT22;671;48.972;9.276;2023-04-24T10:44:09;15.00;99.90
1355;DHT22;671;48.972;9.276;2023-04-24T10:46:39;14.90;99.90
1355;DHT22;671;48.972;9.276;2023-04-24T10:49:09;14.60;99.90
1355;DHT22;671;48.972;9.276;2023-04-24T10:51:45;14.50;99.90
1355;DHT22;671;48.972;9.276;2023-04-24T10:54:23;14.50;99.90
1355;DHT22;671;48.972;9.276;2023-04-24T10:56:51;14.60;99.90
1355;DHT22;671;48.972;9.276;2023-04-24T10:59:25;14.70;99.90
1355;DHT22;671;48.972;9.276;2023-04-24T11:01:53;14.90;99.90
1355;DHT22;671;48.972;9.276;2023-04-24T11:04:31;14.90;99.90
1355;DHT22;671;48.972;9.276;2023-04-24T11:06:58;15.00;99.90
1355;DHT22;671;48.972;9.276;2023-04-24T11:09:28;15.10;99.90
1355;DHT22;671;48.972;9.276;2023-04-24T11:12:10;15.30;99.90
1355;DHT22;671;48.972;9.276;2023-04-24T11:20:04;16.30;99.90
1355;DHT22;671;48.972;9.276;2023-04-24T11:22:37;16.40;99.90
1355;DHT22;671;48.972;9.276;2023-04-24T11:25:04;16.20;99.90
1355;DHT22;671;48.972;9.276;2023-04-24T11:27:39;16.00;99.90
1355;DHT22;671;48.972;9.276;2023-04-24T11:30:06;15.90;99.90
1355;DHT22;671;48.972;9.276;2023-04-24T11:37:38;15.50;99.90
1355;DHT22;671;48.972;9.276;2023-04-24T11:40:10;15.40;99.90
1355;DHT22;671;48.972;9.276;2023-04-24T11:42:39;15.30;99.90
1355;DHT22;671;48.972;9.276;2023-04-24T11:47:42;15.30;99.90
1355;DHT22;671;48.972;9.276;2023-04-24T11:50:11;15.20;99.90
1355;DHT22;671;48.972;9.276;2023-04-24T11:52:40;15.20;99.90
1355;DHT22;671;48.972;9.276;2023-04-24T11:57:48;15.10;99.90
1355;DHT22;671;48.972;9.276;2023-04-24T12:00:23;15.10;99.90
1355;DHT22;671;48.972;9.276;2023-04-24T12:02:50;15.30;99.90
1355;DHT22;671;48.972;9.276;2023-04-24T12:05:25;15.50;99.90
1355;DHT22;671;48.972;9.276;2023-04-24T12:07:52;15.50;99.90
1355;DHT22;671;48.972;9.276;2023-04-24T12:10:21;15.30;99.90
1355;DHT22;671;48.972;9.276;2023-04-24T12:12:47;15.30;99.90
1355;DHT22;671;48.972;9.276;2023-04-24T12:15:17;15.10;99.90
1355;DHT22;671;48.972;9.276;2023-04-24T12:17:44;15.00;99.90
1355;DHT22;671;48.972;9.276;2023-04-24T12:20:12;14.90;99.90
1355;DHT22;671;48.972;9.276;2023-04-24T12:22:50;15.00;99.90
1355;DHT22;671;48.972;9.276;2023-04-24T12:25:18;15.00;99.90
1355;DHT22;671;48.972;9.276;2023-04-24T12:27:46;15.10;99.90
1355;DHT22;671;48.972;9.276;2023-04-24T12:30:15;15.30;99.90
1355;DHT22;671;48.972;9.276;2023-04-24T12:32:50;15.30;99.90
1355;DHT22;671;48.972;9.276;2023-04-24T12:35:40;15.30;99.90
1355;DHT22;671;48.972;9.276;2023-04-24T12:38:27;15.20;99.90
1355;DHT22;671;48.972;9.276;2023-04-24T12:41:15;14.90;99.90
1355;DHT22;671;48.972;9.276;2023-04-24T12:44:01;14.60;99.90
1355;DHT22;671;48.972;9.276;2023-04-24T12:46:47;14.20;99.90
1355;DHT22;671;48.972;9.276;2023-04-24T12:49:32;14.00;99.90
1355;DHT22;671;48.972;9.276;2023-04-24T12:52:19;13.80;99.90
1355;DHT22;671;48.972;9.276;2023-04-24T13:16:51;13.60;99.90
1355;DHT22;671;48.972;9.276;2023-04-24T13:19:38;16.00;99.90
1355;DHT22;671;48.972;9.276;2023-04-24T13:22:24;16.30;99.90
1355;DHT22;671;48.972;9.276;2023-04-24T13:25:10;16.20;99.90
1355;DHT22;671;48.972;9.276;2023-04-24T13:27:56;16.10;99.90
1355;DHT22;671;48.972;9.276;2023-04-24T13:30:42;15.90;99.90
1355;DHT22;671;48.972;9.276;2023-04-24T13:33:29;16.00;99.90
1355;DHT22;671;48.972;9.276;2023-04-24T13:36:14;15.80;99.90
1355;DHT22;671;48.972;9.276;2023-04-24T13:39:03;15.80;99.90
1355;DHT22;671;48.972;9.276;2023-04-24T13:41:50;15.80;99.90
1355;DHT22;671;48.972;9.276;2023-04-24T13:44:37;16.10;99.90
1355;DHT22;671;48.972;9.276;2023-04-24T13:47:23;16.40;99.90
1355;DHT22;671;48.972;9.276;2023-04-24T13:50:09;16.60;99.90
1355;DHT22;671;48.972;9.276;2023-04-24T13:52:55;16.70;99.90
1355;DHT22;671;48.972;9.276;2023-04-24T13:55:42;16.70;99.90
1355;DHT22;671;48.972;9.276;2023-04-24T13:58:28;16.30;99.50
1355;DHT22;671;48.972;9.276;2023-04-24T14:01:14;16.10;99.90
1355;DHT22;671;48.972;9.276;2023-04-24T14:04:01;16.20;99.90
1355;DHT22;671;48.972;9.276;2023-04-24T14:06:47;16.00;99.90
1355;DHT22;671;48.972;9.276;2023-04-24T14:09:33;16.00;99.90
1355;DHT22;671;48.972;9.276;2023-04-24T14:12:19;16.10;99.90
1355;DHT22;671;48.972;9.276;2023-04-24T14:15:20;16.20;99.90
1355;DHT22;671;48.972;9.276;2023-04-24T14:18:06;16.50;99.90
1355;DHT22;671;48.972;9.276;2023-04-24T14:20:52;16.60;99.90
1355;DHT22;671;48.972;9.276;2023-04-24T14:23:38;16.50;99.80
1355;DHT22;671;48.972;9.276;2023-04-24T14:26:24;16.30;99.70
1355;DHT22;671;48.972;9.276;2023-04-24T14:29:10;16.30;99.90
1355;DHT22;671;48.972;9.276;2023-04-24T14:31:56;16.00;99.90
1355;DHT22;671;48.972;9.276;2023-04-24T14:34:42;15.50;99.30
1355;DHT22;671;48.972;9.276;2023-04-24T14:37:28;15.50;99.90
1355;DHT22;671;48.972;9.276;2023-04-24T14:40:14;15.50;99.90
1355;DHT22;671;48.972;9.276;2023-04-24T14:43:00;15.80;99.90
1355;DHT22;671;48.972;9.276;2023-04-24T14:45:46;16.20;99.90
1355;DHT22;671;48.972;9.276;2023-04-24T14:48:32;16.30;99.90
1355;DHT22;671;48.972;9.276;2023-04-24T14:51:18;16.40;99.90
1355;DHT22;671;48.972;9.276;2023-04-24T14:54:04;16.40;99.90
1355;DHT22;671;48.972;9.276;2023-04-24T14:56:50;16.20;99.90
1355;DHT22;671;48.972;9.276;2023-04-24T14:59:36;16.20;99.90
1355;DHT22;671;48.972;9.276;2023-04-24T15:02:22;16.10;99.50
1355;DHT22;671;48.972;9.276;2023-04-24T15:05:08;15.90;98.60
1355;DHT22;671;48.972;9.276;2023-04-24T15:07:54;15.80;99.30
1355;DHT22;671;48.972;9.276;2023-04-24T15:10:40;15.70;99.30
1355;DHT22;671;48.972;9.276;2023-04-24T15:13:26;15.70;99.40
1355;DHT22;671;48.972;9.276;2023-04-24T15:16:12;15.80;99.80
1355;DHT22;671;48.972;9.276;2023-04-24T15:18:58;15.80;99.10
1355;DHT22;671;48.972;9.276;2023-04-24T15:21:44;15.80;99.10
1355;DHT22;671;48.972;9.276;2023-04-24T15:24:30;15.70;99.80
1355;DHT22;671;48.972;9.276;2023-04-24T15:27:16;15.60;98.60
1355;DHT22;671;48.972;9.276;2023-04-24T15:30:02;15.50;99.40
1355;DHT22;671;48.972;9.276;2023-04-24T15:32:48;15.20;99.20
1355;DHT22;671;48.972;9.276;2023-04-24T15:35:34;15.10;99.40
1355;DHT22;671;48.972;9.276;2023-04-24T15:38:20;14.90;99.70
1355;DHT22;671;48.972;9.276;2023-04-24T15:41:06;14.80;99.40
1355;DHT22;671;48.972;9.276;2023-04-24T15:43:52;14.80;99.40
1355;DHT22;671;48.972;9.276;2023-04-24T15:46:38;15.00;99.90
1355;DHT22;671;48.972;9.276;2023-04-24T15:49:24;15.40;99.90
1355;DHT22;671;48.972;9.276;2023-04-24T15:52:10;15.60;99.90
1355;DHT22;671;48.972;9.276;2023-04-24T15:54:56;15.70;99.80
1355;DHT22;671;48.972;9.276;2023-04-24T15:57:42;15.60;99.90
1355;DHT22;671;48.972;9.276;2023-04-24T16:00:28;15.50;99.70
1355;DHT22;671;48.972;9.276;2023-04-24T16:03:19;15.50;99.60
1355;DHT22;671;48.972;9.276;2023-04-24T16:06:05;15.50;99.70
1355;DHT22;671;48.972;9.276;2023-04-24T16:08:51;15.70;99.90
1355;DHT22;671;48.972;9.276;2023-04-24T16:11:37;15.80;98.90
1355;DHT22;671;48.972;9.276;2023-04-24T16:14:24;15.60;99.00
1355;DHT22;671;48.972;9.276;2023-04-24T16:17:10;15.50;98.60
1355;DHT22;671;48.972;9.276;2023-04-24T16:19:56;15.40;99.20
1355;DHT22;671;48.972;9.276;2023-04-24T16:22:42;15.40;99.60
1355;DHT22;671;48.972;9.276;2023-04-24T16:25:28;15.40;99.90
1355;DHT22;671;48.972;9.276;2023-04-24T16:28:14;15.50;99.60
1355;DHT22;671;48.972;9.276;2023-04-24T16:31:00;15.60;99.90
1355;DHT22;671;48.972;9.276;2023-04-24T16:33:46;15.70;99.00
1355;DHT22;671;48.972;9.276;2023-04-24T16:36:32;15.80;99.50
1355;DHT22;671;48.972;9.276;2023-04-24T16:39:18;15.80;99.80
1355;DHT22;671;48.972;9.276;2023-04-24T16:42:04;15.70;99.10
1355;DHT22;671;48.972;9.276;2023-04-24T16:44:50;15.70;99.30
1355;DHT22;671;48.972;9.276;2023-04-24T16:47:36;15.60;99.10
1355;DHT22;671;48.972;9.276;2023-04-24T16:50:22;15.50;99.20
1355;DHT22;671;48.972;9.276;2023-04-24T16:53:08;15.40;99.90
1355;DHT22;671;48.972;9.276;2023-04-24T16:55:54;15.30;99.60
1355;DHT22;671;48.972;9.276;2023-04-24T16:58:40;15.10;99.90
1355;DHT22;671;48.972;9.276;2023-04-24T17:01:27;15.00;99.90
1355;DHT22;671;48.972;9.276;2023-04-24T17:04:12;14.90;99.90
1355;DHT22;671;48.972;9.276;2023-04-24T17:06:58;14.90;99.90
1355;DHT22;671;48.972;9.276;2023-04-24T17:09:45;14.80;99.90
1355;DHT22;671;48.972;9.276;2023-04-24T17:12:31;14.70;99.90
1355;DHT22;671;48.972;9.276;2023-04-24T17:15:17;14.60;99.90
1355;DHT22;671;48.972;9.276;2023-04-24T17:18:03;14.50;99.90
1355;DHT22;671;48.972;9.276;2023-04-24T17:20:50;14.40;99.90
1355;DHT22;671;48.972;9.276;2023-04-24T17:23:36;14.40;99.90
1355;DHT22;671;48.972;9.276;2023-04-24T17:26:22;14.30;99.90
1355;DHT22;671;48.972;9.276;2023-04-24T17:29:08;14.20;99.90